Time;durP1;ratioP1;P1;durP2;ratioP2;P2;SDS_P1;SDS_P2;PMS_P1;PMS_P2;Temp;Humidity;BMP_temperature;BMP_pressure;BME280_temperature;BME280_humidity;BME280_pressure;Samples;Min_cycle;Max_cycle;Signal;HPM_P1;HPM_P2
2022/07/16 00:01:56;;;;;;;4.15;1.90;;;17.50;99.90;;;;;;5053387;28;20177;-47
2022/07/16 00:04:21;;;;;;;10.65;1.98;;;17.40;99.90;;;;;;5053149;28;20166;-47
2022/07/16 00:06:47;;;;;;;5.45;2.08;;;17.40;99.90;;;;;;5053294;28;20272;-50
2022/07/16 00:09:13;;;;;;;7.82;2.05;;;17.40;99.90;;;;;;5053297;28;20181;-46
2022/07/16 00:11:38;;;;;;;6.07;1.90;;;17.30;99.90;;;;;;5052658;28;20677;-50
2022/07/16 00:14:04;;;;;;;4.53;2.53;;;17.30;99.90;;;;;;5053512;28;20210;-49
2022/07/16 00:16:30;;;;;;;6.45;2.38;;;17.40;99.90;;;;;;5053229;28;20174;-50
2022/07/16 00:21:39;;;;;;;6.35;1.88;;;17.50;99.90;;;;;;5053182;28;20221;-50
2022/07/16 00:24:07;;;;;;;9.35;2.38;;;17.50;99.90;;;;;;5053445;28;20564;-52
2022/07/16 00:26:33;;;;;;;4.00;2.03;;;17.50;99.90;;;;;;5053264;28;20604;-51
2022/07/16 00:28:58;;;;;;;8.63;2.50;;;17.60;99.90;;;;;;5052987;28;20535;-53
2022/07/16 00:31:24;;;;;;;8.70;2.05;;;17.60;99.90;;;;;;5052942;28;20163;-53
2022/07/16 00:33:49;;;;;;;11.23;2.33;;;17.50;99.90;;;;;;5052905;28;20572;-53
2022/07/16 00:36:15;;;;;;;5.63;2.20;;;17.50;99.90;;;;;;5052968;28;20170;-53
2022/07/16 00:38:40;;;;;;;4.10;2.17;;;17.50;99.90;;;;;;5052770;28;20166;-52
2022/07/16 00:41:16;;;;;;;3.88;2.10;;;17.60;99.90;;;;;;5053091;28;20261;-50
2022/07/16 00:43:50;;;;;;;7.15;2.83;;;17.50;99.90;;;;;;5052685;28;20158;-50
2022/07/16 00:46:16;;;;;;;7.05;2.40;;;17.50;99.90;;;;;;5052909;28;20177;-53
2022/07/16 00:48:43;;;;;;;4.85;2.20;;;17.40;99.90;;;;;;5052581;28;20162;-52
2022/07/16 00:51:09;;;;;;;8.57;2.72;;;17.40;99.90;;;;;;5052588;28;20198;-45
2022/07/16 00:53:35;;;;;;;2.47;2.05;;;17.30;99.90;;;;;;5052840;28;20198;-53
2022/07/16 00:56:01;;;;;;;6.40;2.60;;;17.20;99.90;;;;;;5052750;28;20174;-53
2022/07/16 00:58:27;;;;;;;4.93;2.40;;;17.10;99.90;;;;;;5052555;28;20178;-53
2022/07/16 01:00:52;;;;;;;5.63;2.70;;;17.00;99.90;;;;;;5052419;28;20567;-51
2022/07/16 01:03:18;;;;;;;3.38;1.90;;;17.00;99.90;;;;;;5052312;28;20174;-54
2022/07/16 01:05:45;;;;;;;3.35;2.30;;;17.00;99.90;;;;;;5052380;28;20276;-54
2022/07/16 01:08:11;;;;;;;6.82;2.30;;;17.10;99.90;;;;;;5052271;28;20171;-53
2022/07/16 01:10:39;;;;;;;5.22;2.60;;;17.00;99.90;;;;;;5052469;28;20186;-47
2022/07/16 01:13:06;;;;;;;4.95;2.10;;;17.00;99.90;;;;;;5052511;28;20225;-49
2022/07/16 01:15:31;;;;;;;6.13;1.98;;;17.00;99.90;;;;;;5052115;28;20230;-49
2022/07/16 01:17:57;;;;;;;5.40;2.00;;;17.00;99.90;;;;;;5052118;28;20167;-49
2022/07/16 01:20:22;;;;;;;4.78;2.50;;;17.00;99.90;;;;;;5052062;28;20210;-48
2022/07/16 01:22:48;;;;;;;11.43;2.42;;;17.00;99.90;;;;;;5051833;28;20213;-45
2022/07/16 01:25:14;;;;;;;6.68;2.80;;;17.00;99.90;;;;;;5052277;28;20167;-46
2022/07/16 01:27:40;;;;;;;5.20;2.30;;;16.90;99.90;;;;;;5052216;28;20167;-47
2022/07/16 01:30:09;;;;;;;11.27;2.35;;;16.70;99.90;;;;;;5052364;28;20170;-46
2022/07/16 01:32:36;;;;;;;5.82;2.10;;;16.70;99.90;;;;;;5052197;28;20177;-49
2022/07/16 01:35:02;;;;;;;3.55;2.30;;;16.70;99.90;;;;;;5051931;28;20528;-44
2022/07/16 01:37:28;;;;;;;5.97;2.50;;;16.60;99.90;;;;;;5052045;28;20224;-48
2022/07/16 01:39:53;;;;;;;17.80;2.65;;;16.70;99.90;;;;;;5051853;28;20210;-48
2022/07/16 01:42:19;;;;;;;5.65;2.60;;;16.70;99.90;;;;;;5051785;28;20173;-47
2022/07/16 01:44:45;;;;;;;8.55;2.90;;;16.80;99.90;;;;;;5051821;28;20673;-49
2022/07/16 01:47:10;;;;;;;5.05;2.65;;;16.80;99.90;;;;;;5051918;28;20166;-47
2022/07/16 01:49:37;;;;;;;5.63;2.50;;;16.80;99.90;;;;;;5052015;28;20534;-47
2022/07/16 01:52:05;;;;;;;6.00;2.80;;;16.80;99.90;;;;;;5051632;28;20178;-48
2022/07/16 01:54:31;;;;;;;6.28;2.78;;;16.80;99.90;;;;;;5051957;28;20181;-47
2022/07/16 01:56:56;;;;;;;5.25;2.45;;;16.80;99.90;;;;;;5051665;28;20781;-47
2022/07/16 01:59:22;;;;;;;3.33;2.60;;;16.70;99.90;;;;;;5051612;28;20671;-47
2022/07/16 02:01:47;;;;;;;5.85;2.63;;;16.70;99.90;;;;;;5051631;28;20581;-45
2022/07/16 02:04:13;;;;;;;8.07;2.85;;;16.60;99.90;;;;;;5050370;28;20215;-50
2022/07/16 02:06:38;;;;;;;6.70;2.45;;;16.60;99.90;;;;;;5051452;28;20225;-44
2022/07/16 02:09:04;;;;;;;6.13;2.60;;;16.60;99.90;;;;;;5051841;28;20166;-44
2022/07/16 02:11:30;;;;;;;5.18;2.40;;;16.60;99.90;;;;;;5051768;28;20531;-44
2022/07/16 02:13:55;;;;;;;3.15;2.22;;;16.50;99.90;;;;;;5051430;28;20175;-44
2022/07/16 02:16:21;;;;;;;5.28;2.45;;;16.60;99.90;;;;;;5051472;28;20236;-44
2022/07/16 02:18:46;;;;;;;3.85;2.47;;;16.60;99.90;;;;;;5051335;28;20170;-44
2022/07/16 02:21:12;;;;;;;6.57;2.67;;;16.60;99.90;;;;;;5051478;28;20179;-44
2022/07/16 02:23:37;;;;;;;6.13;2.25;;;16.60;99.90;;;;;;5051758;28;20166;-44
2022/07/16 02:26:03;;;;;;;9.30;2.75;;;16.50;99.90;;;;;;5051359;28;20170;-46
2022/07/16 02:28:28;;;;;;;4.55;2.63;;;16.50;99.90;;;;;;5051255;28;20247;-44
2022/07/16 02:30:54;;;;;;;7.50;2.60;;;16.40;99.90;;;;;;5051392;28;20167;-45
2022/07/16 02:33:21;;;;;;;9.00;2.50;;;16.40;99.90;;;;;;5051307;28;20206;-44
2022/07/16 02:35:47;;;;;;;5.38;2.28;;;16.50;99.90;;;;;;5054207;28;20163;-44
2022/07/16 02:38:13;;;;;;;7.53;2.50;;;16.40;99.90;;;;;;5055296;28;20171;-44
2022/07/16 02:40:41;;;;;;;7.68;2.42;;;16.40;99.90;;;;;;5055035;28;20679;-44
2022/07/16 02:43:08;;;;;;;5.38;2.60;;;16.30;99.90;;;;;;5055559;28;20182;-45
2022/07/16 02:45:35;;;;;;;4.22;2.72;;;16.30;99.90;;;;;;5055199;28;20194;-44
2022/07/16 02:48:01;;;;;;;11.65;2.80;;;16.30;99.90;;;;;;5054915;28;20159;-45
2022/07/16 02:50:28;;;;;;;4.43;2.53;;;16.30;99.90;;;;;;5054765;28;20167;-45
2022/07/16 02:52:53;;;;;;;10.02;2.60;;;16.40;99.90;;;;;;5054858;28;20216;-44
2022/07/16 02:55:19;;;;;;;6.25;2.60;;;16.40;99.90;;;;;;5054811;28;20252;-44
2022/07/16 02:57:44;;;;;;;3.28;2.75;;;16.30;99.90;;;;;;5054841;28;20167;-44
2022/07/16 03:00:12;;;;;;;4.60;2.80;;;16.30;99.90;;;;;;5054894;28;20206;-44
2022/07/16 03:02:39;;;;;;;5.35;2.70;;;16.20;99.90;;;;;;5054649;28;20250;-44
2022/07/16 03:05:05;;;;;;;5.30;2.40;;;16.10;99.90;;;;;;5054957;28;20174;-44
2022/07/16 03:07:31;;;;;;;9.13;2.55;;;16.10;99.90;;;;;;5054401;28;20222;-44
2022/07/16 03:09:56;;;;;;;6.28;2.90;;;16.10;99.90;;;;;;5054520;28;20587;-44
2022/07/16 03:12:22;;;;;;;4.72;2.60;;;16.10;99.90;;;;;;5054543;28;20228;-45
2022/07/16 03:14:47;;;;;;;7.40;2.85;;;16.10;99.90;;;;;;5054535;28;20242;-44
2022/07/16 03:17:13;;;;;;;4.85;2.97;;;16.20;99.90;;;;;;5054353;28;20181;-45
2022/07/16 03:19:39;;;;;;;5.22;2.65;;;16.20;99.90;;;;;;5054315;28;20638;-44
2022/07/16 03:22:05;;;;;;;4.78;2.70;;;16.30;99.90;;;;;;5054582;28;20175;-44
2022/07/16 03:24:31;;;;;;;8.02;3.20;;;16.30;99.90;;;;;;5054229;28;20178;-44
2022/07/16 03:26:57;;;;;;;3.90;2.60;;;16.30;99.90;;;;;;5054187;28;20167;-44
2022/07/16 03:29:23;;;;;;;6.07;3.35;;;16.30;99.90;;;;;;5054094;28;20203;-45
2022/07/16 03:31:49;;;;;;;6.93;2.90;;;16.30;99.90;;;;;;5054175;28;20162;-44
2022/07/16 03:34:15;;;;;;;3.75;2.95;;;16.40;99.90;;;;;;5054192;28;20167;-44
2022/07/16 03:36:40;;;;;;;9.43;2.58;;;16.40;99.90;;;;;;5054068;28;20173;-44
2022/07/16 03:39:06;;;;;;;4.55;2.80;;;16.40;99.90;;;;;;5054197;28;20721;-45
2022/07/16 03:41:34;;;;;;;9.30;2.58;;;16.50;99.90;;;;;;5054171;28;20278;-53
2022/07/16 03:44:01;;;;;;;6.97;2.78;;;16.50;99.90;;;;;;5054235;28;20170;-50
2022/07/16 03:46:27;;;;;;;6.43;2.50;;;16.50;99.90;;;;;;5053869;28;20178;-49
2022/07/16 03:48:52;;;;;;;5.18;2.80;;;16.50;99.90;;;;;;5053917;28;20628;-49
2022/07/16 03:51:18;;;;;;;6.85;2.85;;;16.50;99.90;;;;;;5054046;28;20174;-52
2022/07/16 03:53:43;;;;;;;3.47;2.60;;;16.50;99.90;;;;;;5053722;28;20178;-52
2022/07/16 03:56:09;;;;;;;8.95;3.05;;;16.50;99.90;;;;;;5053666;28;20167;-49
2022/07/16 03:58:35;;;;;;;7.78;2.90;;;16.60;99.90;;;;;;5054081;28;20174;-49
2022/07/16 04:01:01;;;;;;;6.60;3.20;;;16.50;99.90;;;;;;5053588;28;20185;-51
2022/07/16 04:03:27;;;;;;;4.53;2.72;;;16.40;99.90;;;;;;5053543;28;20178;-50
2022/07/16 04:05:53;;;;;;;7.57;2.65;;;16.50;99.90;;;;;;5053392;28;20694;-50
2022/07/16 04:08:19;;;;;;;7.03;3.28;;;16.50;99.90;;;;;;5054081;28;20178;-49
2022/07/16 04:10:45;;;;;;;9.95;2.90;;;16.60;99.90;;;;;;5053419;28;20171;-48
2022/07/16 04:13:11;;;;;;;10.05;3.28;;;16.60;99.90;;;;;;5053608;28;20171;-51
2022/07/16 04:15:36;;;;;;;4.13;2.85;;;16.60;99.90;;;;;;5053685;28;20163;-47
2022/07/16 04:18:02;;;;;;;6.13;2.92;;;16.60;99.90;;;;;;5053240;28;20651;-44
2022/07/16 04:20:28;;;;;;;6.15;2.60;;;16.70;99.90;;;;;;5053082;28;20260;-46
2022/07/16 04:22:54;;;;;;;5.03;2.70;;;16.70;99.90;;;;;;5053123;28;20175;-52
2022/07/16 04:25:20;;;;;;;14.40;3.22;;;16.80;99.90;;;;;;5053177;28;20293;-47
2022/07/16 04:27:46;;;;;;;4.82;2.67;;;16.70;99.90;;;;;;5053082;28;20163;-49
2022/07/16 04:30:13;;;;;;;5.53;2.63;;;16.70;99.90;;;;;;5052950;28;20628;-45
2022/07/16 04:32:40;;;;;;;6.80;2.67;;;16.60;99.90;;;;;;5052919;28;20231;-45
2022/07/16 04:35:07;;;;;;;3.75;2.90;;;16.60;99.90;;;;;;5053162;28;20320;-51
2022/07/16 04:37:34;;;;;;;3.90;3.22;;;16.50;99.90;;;;;;5053264;28;20204;-49
2022/07/16 04:40:00;;;;;;;8.52;3.10;;;16.50;99.90;;;;;;5052923;28;20218;-49
2022/07/16 04:42:25;;;;;;;7.90;2.70;;;16.50;99.90;;;;;;5053100;28;20502;-45
2022/07/16 04:44:51;;;;;;;7.60;2.78;;;16.50;99.90;;;;;;5052716;28;20174;-52
2022/07/16 04:47:17;;;;;;;9.13;3.10;;;16.50;99.90;;;;;;5052656;28;20672;-49
2022/07/16 04:49:42;;;;;;;5.82;3.00;;;16.50;99.90;;;;;;5052662;28;20534;-50
2022/07/16 04:52:08;;;;;;;12.18;3.42;;;16.50;99.90;;;;;;5052555;28;20177;-50
2022/07/16 04:54:33;;;;;;;3.58;2.75;;;16.40;99.90;;;;;;5053007;28;20173;-44
2022/07/16 04:56:59;;;;;;;9.80;2.97;;;16.50;99.90;;;;;;5052147;28;20638;-48
2022/07/16 04:59:25;;;;;;;4.80;2.42;;;16.50;99.90;;;;;;5052262;28;20730;-48
2022/07/16 05:01:51;;;;;;;6.68;2.58;;;16.50;99.90;;;;;;5051150;28;20258;-49
2022/07/16 05:04:16;;;;;;;9.05;2.42;;;16.50;99.90;;;;;;5052314;28;20177;-52
2022/07/16 05:06:42;;;;;;;5.53;2.25;;;16.50;99.90;;;;;;5052223;28;20301;-45
2022/07/16 05:09:07;;;;;;;6.78;2.60;;;16.60;99.90;;;;;;5052352;28;20242;-46
2022/07/16 05:11:33;;;;;;;9.98;3.03;;;16.70;99.90;;;;;;5052434;28;20619;-52
2022/07/16 05:13:59;;;;;;;6.57;2.72;;;16.70;99.90;;;;;;5051922;28;20606;-52
2022/07/16 05:16:24;;;;;;;6.10;2.60;;;16.70;99.90;;;;;;5052166;28;20223;-49
2022/07/16 05:18:50;;;;;;;11.68;3.10;;;16.80;99.90;;;;;;5051989;28;20162;-48
2022/07/16 05:21:16;;;;;;;6.93;2.63;;;16.80;99.90;;;;;;5050788;28;20209;-48
2022/07/16 05:23:42;;;;;;;6.47;2.47;;;16.90;99.90;;;;;;5051982;28;20205;-47
2022/07/16 05:26:08;;;;;;;8.85;3.00;;;17.00;99.90;;;;;;5052031;28;20183;-49
2022/07/16 05:28:33;;;;;;;3.15;2.47;;;17.00;99.90;;;;;;5052400;28;20167;-44
2022/07/16 05:30:59;;;;;;;8.93;2.75;;;17.10;99.90;;;;;;5052017;28;20162;-50
2022/07/16 05:33:25;;;;;;;7.45;2.85;;;17.10;99.90;;;;;;5051848;28;20220;-44
2022/07/16 05:35:51;;;;;;;5.70;2.83;;;17.30;99.90;;;;;;5051948;28;20169;-46
2022/07/16 05:38:17;;;;;;;8.35;2.85;;;17.30;99.90;;;;;;5051886;28;20171;-52
2022/07/16 05:40:43;;;;;;;6.90;2.75;;;17.30;99.90;;;;;;5051944;28;20287;-47
2022/07/16 05:43:09;;;;;;;6.35;2.90;;;17.40;99.90;;;;;;5051727;28;20643;-49
2022/07/16 05:45:35;;;;;;;5.90;2.88;;;17.50;99.90;;;;;;5052108;28;20170;-46
2022/07/16 05:48:00;;;;;;;8.23;2.47;;;17.70;99.90;;;;;;5052042;28;20170;-45
2022/07/16 05:50:26;;;;;;;7.75;2.80;;;17.70;99.90;;;;;;5051676;28;20190;-48
2022/07/16 05:52:52;;;;;;;8.43;2.80;;;17.80;99.90;;;;;;5051747;28;20167;-44
2022/07/16 05:55:17;;;;;;;3.20;2.17;;;17.70;99.90;;;;;;5051658;28;20166;-47
2022/07/16 05:57:43;;;;;;;4.63;2.20;;;17.70;99.90;;;;;;5051677;28;20170;-45
2022/07/16 06:00:10;;;;;;;6.38;2.40;;;17.70;99.90;;;;;;5051645;28;20300;-49
2022/07/16 06:02:37;;;;;;;7.38;2.83;;;17.80;99.90;;;;;;5051841;28;20635;-44
2022/07/16 06:05:03;;;;;;;6.28;2.85;;;17.90;99.90;;;;;;5052154;28;20243;-43
2022/07/16 06:07:28;;;;;;;7.97;2.50;;;17.90;99.90;;;;;;5051452;28;20214;-44
2022/07/16 06:09:54;;;;;;;7.78;2.65;;;17.90;99.90;;;;;;5052778;28;20643;-44
2022/07/16 06:12:20;;;;;;;7.60;2.95;;;18.10;99.90;;;;;;5055700;28;20162;-44
2022/07/16 06:14:46;;;;;;;7.72;2.58;;;18.00;99.90;;;;;;5055597;28;20166;-44
2022/07/16 06:17:13;;;;;;;6.95;2.70;;;17.90;99.90;;;;;;5055756;28;20247;-44
2022/07/16 06:19:41;;;;;;;4.45;2.42;;;18.00;99.90;;;;;;5055571;28;20285;-44
2022/07/16 06:22:07;;;;;;;8.05;2.58;;;18.10;99.90;;;;;;5055678;28;20194;-44
2022/07/16 06:24:32;;;;;;;6.30;2.95;;;18.20;99.90;;;;;;5055729;28;20631;-49
2022/07/16 06:26:58;;;;;;;6.38;2.83;;;18.30;99.90;;;;;;5055325;28;20179;-44
2022/07/16 06:29:23;;;;;;;6.20;3.17;;;18.40;99.90;;;;;;5055256;28;20175;-44
2022/07/16 06:31:49;;;;;;;5.25;2.90;;;18.40;99.90;;;;;;5054994;28;20171;-46
2022/07/16 06:34:15;;;;;;;5.03;3.22;;;18.50;99.90;;;;;;5054770;28;20159;-44
2022/07/16 06:36:40;;;;;;;7.32;3.15;;;18.60;99.90;;;;;;5055217;28;20185;-44
2022/07/16 06:39:07;;;;;;;7.38;3.25;;;18.50;99.90;;;;;;5055252;28;20281;-44
2022/07/16 06:41:38;;;;;;;5.68;2.75;;;18.80;99.90;;;;;;5055346;28;20631;-46
2022/07/16 06:44:06;;;;;;;6.15;2.53;;;19.00;99.90;;;;;;5055539;28;20170;-48
2022/07/16 06:46:32;;;;;;;9.70;3.30;;;19.20;99.90;;;;;;5055224;28;20253;-47
2022/07/16 06:48:58;;;;;;;9.00;4.00;;;19.20;99.90;;;;;;5054901;28;20193;-44
2022/07/16 06:51:24;;;;;;;8.32;3.53;;;19.00;99.90;;;;;;5054734;28;20170;-44
2022/07/16 06:53:50;;;;;;;10.75;4.00;;;19.20;99.90;;;;;;5054791;28;20162;-46
2022/07/16 06:56:15;;;;;;;6.45;3.35;;;19.10;99.90;;;;;;5054606;28;20163;-45
2022/07/16 06:58:41;;;;;;;11.35;4.43;;;19.30;99.90;;;;;;5054869;28;20526;-44
2022/07/16 07:01:08;;;;;;;8.27;4.10;;;19.30;99.90;;;;;;5055097;28;20258;-44
2022/07/16 07:03:34;;;;;;;9.98;4.68;;;19.40;99.90;;;;;;5054769;28;20625;-47
2022/07/16 07:05:59;;;;;;;7.78;4.00;;;19.40;99.90;;;;;;5054137;28;20246;-44
2022/07/16 07:08:25;;;;;;;6.88;3.85;;;19.50;99.90;;;;;;5055027;28;20163;-44
2022/07/16 07:10:50;;;;;;;9.70;4.35;;;19.40;99.90;;;;;;5054524;28;20258;-44
2022/07/16 07:13:16;;;;;;;7.55;4.32;;;19.30;99.90;;;;;;5054115;28;20167;-44
2022/07/16 07:15:42;;;;;;;9.45;4.13;;;19.40;99.90;;;;;;5054481;28;20512;-44
2022/07/16 07:18:08;;;;;;;7.13;4.38;;;19.60;99.90;;;;;;5054561;28;20206;-44
2022/07/16 07:20:34;;;;;;;6.35;4.25;;;19.80;99.90;;;;;;5054072;28;20245;-44
2022/07/16 07:22:59;;;;;;;11.00;4.97;;;20.00;99.90;;;;;;5054338;28;20251;-53
2022/07/16 07:25:25;;;;;;;11.38;5.35;;;20.00;99.90;;;;;;5054210;28;20177;-53
2022/07/16 07:27:51;;;;;;;9.57;4.78;;;19.80;99.90;;;;;;5054404;28;20174;-49
2022/07/16 07:30:17;;;;;;;16.45;4.80;;;20.10;99.90;;;;;;5053770;28;20625;-51
2022/07/16 07:32:42;;;;;;;7.05;4.30;;;20.40;99.90;;;;;;5053885;28;20170;-51
2022/07/16 07:35:08;;;;;;;7.82;4.28;;;20.60;99.90;;;;;;5053013;28;20177;-52
2022/07/16 07:37:34;;;;;;;6.72;5.00;;;20.80;99.90;;;;;;5052788;28;20169;-50
2022/07/16 07:40:02;;;;;;;8.50;4.53;;;20.80;99.90;;;;;;5052425;28;20562;-44
2022/07/16 07:42:28;;;;;;;8.07;4.20;;;21.00;99.90;;;;;;5052741;28;20174;-44
2022/07/16 07:44:54;;;;;;;7.43;4.80;;;21.10;99.90;;;;;;5052596;28;20273;-53
2022/07/16 07:47:19;;;;;;;9.93;4.88;;;21.20;99.90;;;;;;5052601;28;20248;-50
2022/07/16 07:49:45;;;;;;;9.70;4.47;;;21.20;99.90;;;;;;5052797;28;20189;-52
2022/07/16 07:52:12;;;;;;;10.85;5.00;;;21.10;99.90;;;;;;5053357;28;20198;-50
2022/07/16 07:54:38;;;;;;;9.27;4.75;;;21.40;99.90;;;;;;5053792;28;20179;-52
2022/07/16 07:57:03;;;;;;;8.63;4.75;;;21.40;99.90;;;;;;5053870;28;20689;-46
2022/07/16 07:59:29;;;;;;;7.63;5.15;;;21.50;99.90;;;;;;5052309;28;20248;-46
2022/07/16 08:01:55;;;;;;;5.18;4.68;;;21.70;99.90;;;;;;5053952;28;20178;-46
2022/07/16 08:04:21;;;;;;;8.60;4.85;;;21.50;99.90;;;;;;5053719;28;20166;-44
2022/07/16 08:06:46;;;;;;;5.13;4.25;;;21.60;99.90;;;;;;5053711;28;20225;-45
2022/07/16 08:09:12;;;;;;;6.90;5.15;;;21.90;99.90;;;;;;5053982;28;20163;-48
2022/07/16 08:11:38;;;;;;;6.15;5.20;;;21.80;99.90;;;;;;5053725;28;20182;-46
2022/07/16 08:14:04;;;;;;;8.13;5.00;;;21.80;99.90;;;;;;5053419;28;20257;-47
2022/07/16 08:16:29;;;;;;;9.13;4.93;;;21.70;99.90;;;;;;5053279;28;20171;-45
2022/07/16 08:18:55;;;;;;;5.82;4.80;;;22.00;99.90;;;;;;5053457;28;20708;-52
2022/07/16 08:21:21;;;;;;;6.95;4.60;;;22.10;99.90;;;;;;5053625;28;20257;-43
2022/07/16 08:26:31;;;;;;;8.50;3.90;;;22.10;99.90;;;;;;5053735;28;20209;-47
2022/07/16 08:28:57;;;;;;;5.07;3.58;;;22.10;99.90;;;;;;5052673;28;20205;-44
2022/07/16 08:31:22;;;;;;;8.65;3.80;;;22.10;99.90;;;;;;5053367;28;20166;-45
2022/07/16 08:33:48;;;;;;;5.70;3.65;;;21.90;99.90;;;;;;5052005;28;20616;-44
2022/07/16 08:36:13;;;;;;;8.38;3.30;;;22.20;99.90;;;;;;5053499;28;20171;-44
2022/07/16 08:38:39;;;;;;;9.60;4.00;;;22.40;99.90;;;;;;5053187;28;20241;-44
2022/07/16 08:41:05;;;;;;;3.65;3.35;;;22.40;99.90;;;;;;5053287;28;20206;-48
2022/07/16 08:43:32;;;;;;;7.15;3.60;;;22.40;99.90;;;;;;5051809;28;20546;-43
2022/07/16 08:45:58;;;;;;;4.40;3.03;;;22.30;99.90;;;;;;5053683;28;20173;-44
2022/07/16 08:48:26;;;;;;;8.63;3.13;;;21.90;99.90;;;;;;5052902;28;20155;-44
2022/07/16 08:50:58;;;;;;;4.75;3.13;;;21.60;99.90;;;;;;5053419;28;20171;-45
2022/07/16 08:53:24;;;;;;;8.10;3.33;;;21.40;99.90;;;;;;5052810;28;20169;-44
2022/07/16 08:55:52;;;;;;;18.38;3.92;;;21.30;99.90;;;;;;5052991;28;20269;-44
2022/07/16 08:58:18;;;;;;;3.70;2.83;;;21.30;99.90;;;;;;5054220;28;20166;-44
2022/07/16 09:00:45;;;;;;;3.22;2.30;;;21.50;99.90;;;;;;5052163;28;20264;-47
2022/07/16 09:03:14;;;;;;;6.38;2.40;;;21.60;99.90;;;;;;5052632;28;20170;-44
2022/07/16 09:05:41;;;;;;;3.00;2.05;;;21.70;99.90;;;;;;5052166;28;20540;-47
2022/07/16 09:08:07;;;;;;;2.88;1.73;;;21.70;99.90;;;;;;5052314;28;20201;-46
2022/07/16 09:10:38;;;;;;;2.80;1.50;;;21.70;99.90;;;;;;5052348;28;20159;-49
2022/07/16 09:13:05;;;;;;;2.40;1.35;;;21.70;99.90;;;;;;5052638;28;20281;-51
2022/07/16 09:15:35;;;;;;;4.50;1.42;;;21.90;99.90;;;;;;5052618;28;20174;-46
2022/07/16 09:18:21;;;;;;;3.25;1.67;;;21.80;99.90;;;;;;5051447;28;20586;-52
2022/07/16 09:20:52;;;;;;;2.30;1.58;;;22.00;99.90;;;;;;5052080;28;20281;-45
2022/07/16 09:23:25;;;;;;;2.60;1.30;;;21.80;99.90;;;;;;5051845;28;20233;-46
2022/07/16 09:26:05;;;;;;;3.45;1.48;;;21.80;99.90;;;;;;5052019;28;20174;-49
2022/07/16 09:28:44;;;;;;;2.45;1.33;;;21.90;99.90;;;;;;5052312;28;20173;-48
2022/07/16 09:31:12;;;;;;;2.67;1.33;;;22.20;99.90;;;;;;5051749;28;20225;-47
2022/07/16 09:33:37;;;;;;;3.42;1.40;;;22.50;99.90;;;;;;5051319;28;20254;-53
2022/07/16 09:36:09;;;;;;;2.00;1.38;;;22.60;99.90;;;;;;5051680;28;20254;-49
2022/07/16 09:38:51;;;;;;;1.58;1.20;;;22.70;99.90;;;;;;5051902;28;20544;-49
2022/07/16 09:41:18;;;;;;;1.80;1.30;;;22.70;99.90;;;;;;5051600;28;20209;-50
2022/07/16 09:43:44;;;;;;;3.25;1.38;;;22.80;99.90;;;;;;5051144;28;20167;-52
2022/07/16 09:46:19;;;;;;;2.15;1.48;;;22.80;99.90;;;;;;5051535;28;20196;-55
2022/07/16 09:48:45;;;;;;;1.33;1.00;;;22.80;99.90;;;;;;5051263;28;20154;-54
2022/07/16 09:51:19;;;;;;;2.55;1.20;;;23.30;99.90;;;;;;5051560;28;20474;-44
2022/07/16 09:53:47;;;;;;;10.27;1.60;;;23.50;99.90;;;;;;5051368;28;20167;-43
2022/07/16 09:56:15;;;;;;;3.17;1.20;;;23.50;99.90;;;;;;5051154;28;20241;-54
2022/07/16 09:58:46;;;;;;;3.25;1.27;;;23.50;99.90;;;;;;5051655;28;20171;-51
2022/07/16 10:01:13;;;;;;;1.25;1.10;;;23.20;99.90;;;;;;5050805;28;20206;-50
2022/07/16 10:03:38;;;;;;;2.38;1.33;;;22.80;99.90;;;;;;5051247;28;20173;-54
2022/07/16 10:06:05;;;;;;;3.22;1.45;;;22.90;99.90;;;;;;5051263;28;20210;-54
2022/07/16 10:08:31;;;;;;;1.65;1.50;;;23.10;99.90;;;;;;5051223;28;20540;-53
2022/07/16 10:10:57;;;;;;;3.33;1.50;;;23.40;99.90;;;;;;5051013;28;20624;-53
2022/07/16 10:13:26;;;;;;;3.67;1.55;;;23.20;99.90;;;;;;5051190;28;20171;-54
2022/07/16 10:15:53;;;;;;;3.08;1.50;;;23.00;99.90;;;;;;5050876;28;20232;-44
2022/07/16 10:18:42;;;;;;;3.28;1.10;;;23.00;99.90;;;;;;5043825;28;20194;-45
2022/07/16 10:21:14;;;;;;;2.33;1.23;;;23.10;99.90;;;;;;5030487;28;20199;-53
2022/07/16 10:23:43;;;;;;;1.83;1.13;;;23.10;99.90;;;;;;5030863;28;20163;-44
2022/07/16 10:26:18;;;;;;;2.35;1.70;;;23.20;99.90;;;;;;5031382;28;20175;-44
2022/07/16 10:29:03;;;;;;;2.55;1.25;;;23.80;99.90;;;;;;5031084;28;20174;-44
2022/07/16 10:31:33;;;;;;;3.95;1.67;;;23.50;99.90;;;;;;5030857;28;20636;-54
2022/07/16 10:34:14;;;;;;;2.33;1.60;;;23.30;99.90;;;;;;5031157;28;20588;-53
2022/07/16 10:36:47;;;;;;;4.05;1.67;;;23.60;99.90;;;;;;5031158;28;20807;-45
2022/07/16 10:39:16;;;;;;;1.95;1.48;;;23.80;99.90;;;;;;5030839;28;20219;-50
2022/07/16 10:42:02;;;;;;;1.98;1.58;;;24.30;99.90;;;;;;5030787;28;20629;-53
2022/07/16 10:44:49;;;;;;;4.30;1.20;;;24.60;99.90;;;;;;5030796;28;20171;-44
2022/07/16 10:47:15;;;;;;;2.28;1.60;;;24.50;99.90;;;;;;5030748;28;20171;-48
2022/07/16 10:49:42;;;;;;;2.67;1.30;;;24.50;99.90;;;;;;5030924;28;20170;-45
2022/07/16 10:52:10;;;;;;;1.48;1.35;;;24.20;99.90;;;;;;5030797;28;20617;-44
2022/07/16 10:55:02;;;;;;;3.50;1.77;;;24.00;99.90;;;;;;5031256;28;20262;-45
2022/07/16 10:57:40;;;;;;;3.03;1.42;;;23.70;99.90;;;;;;5034205;28;20175;-52
2022/07/16 11:00:07;;;;;;;2.50;1.27;;;23.60;99.90;;;;;;5033947;28;20684;-44
2022/07/16 11:02:40;;;;;;;3.63;1.17;;;23.70;99.90;;;;;;5035002;28;20175;-53
2022/07/16 11:05:06;;;;;;;4.28;1.60;;;23.90;99.90;;;;;;5034245;28;20233;-49
2022/07/16 11:07:36;;;;;;;1.88;1.48;;;23.60;99.90;;;;;;5034595;28;20234;-52
2022/07/16 11:10:03;;;;;;;1.77;1.23;;;23.70;99.90;;;;;;5034384;28;20250;-52
2022/07/16 11:12:32;;;;;;;2.60;1.48;;;24.10;99.90;;;;;;5034440;28;20174;-48
2022/07/16 11:15:01;;;;;;;2.92;2.00;;;24.60;99.90;;;;;;5034222;28;20179;-50
2022/07/16 11:17:29;;;;;;;2.95;1.45;;;24.80;99.90;;;;;;5034613;28;20199;-53
2022/07/16 11:19:56;;;;;;;2.67;1.70;;;24.50;99.90;;;;;;5034479;28;20991;-53
2022/07/16 11:22:26;;;;;;;1.90;1.50;;;24.10;99.90;;;;;;5034439;28;20577;-53
2022/07/16 11:24:55;;;;;;;2.83;2.00;;;23.80;99.90;;;;;;5034310;28;20182;-53
2022/07/16 11:27:34;;;;;;;2.22;1.63;;;24.50;99.90;;;;;;5033849;28;20163;-53
2022/07/16 11:30:02;;;;;;;1.95;1.50;;;24.90;99.90;;;;;;5034102;28;20159;-52
2022/07/16 11:32:28;;;;;;;3.83;1.30;;;24.90;99.90;;;;;;5034125;28;20640;-53
2022/07/16 11:34:54;;;;;;;2.08;1.30;;;24.60;99.90;;;;;;5034174;28;20178;-54
2022/07/16 11:37:20;;;;;;;5.50;1.50;;;24.30;99.90;;;;;;5033972;28;20172;-53
2022/07/16 11:39:46;;;;;;;2.85;1.92;;;24.20;99.90;;;;;;5034033;28;20566;-53
2022/07/16 11:42:12;;;;;;;4.72;1.67;;;24.90;99.90;;;;;;5034023;28;20524;-50
2022/07/16 11:44:40;;;;;;;2.03;1.52;;;24.90;99.90;;;;;;5033908;28;20175;-54
2022/07/16 11:47:08;;;;;;;4.05;1.67;;;24.40;99.90;;;;;;5034150;28;20163;-53
2022/07/16 11:49:40;;;;;;;3.08;1.50;;;24.00;99.90;;;;;;5034140;28;20637;-53
2022/07/16 11:52:20;;;;;;;2.25;1.38;;;23.80;99.90;;;;;;5033957;28;20237;-53
2022/07/16 11:54:47;;;;;;;3.25;2.13;;;24.00;99.90;;;;;;5033621;28;20186;-52
2022/07/16 11:57:13;;;;;;;2.08;1.65;;;24.60;99.90;;;;;;5033479;28;20504;-50
2022/07/16 11:59:47;;;;;;;1.73;1.30;;;25.20;99.90;;;;;;5033462;28;20202;-53
2022/07/16 12:02:16;;;;;;;2.60;1.58;;;24.90;99.90;;;;;;5033056;28;20659;-49
2022/07/16 12:04:45;;;;;;;2.08;1.35;;;25.00;99.90;;;;;;5032728;28;20179;-53
2022/07/16 12:07:29;;;;;;;3.38;1.67;;;25.20;99.90;;;;;;5031625;28;20226;-44
2022/07/16 12:10:19;;;;;;;2.80;1.70;;;25.30;99.90;;;;;;5032839;28;20641;-53
2022/07/16 12:12:44;;;;;;;4.47;1.70;;;25.10;99.90;;;;;;5032962;28;20714;-51
2022/07/16 12:15:12;;;;;;;4.13;1.85;;;25.30;99.90;;;;;;5032774;28;20190;-44
2022/07/16 12:17:46;;;;;;;3.03;1.60;;;25.30;99.90;;;;;;5033309;28;20182;-48
2022/07/16 12:20:18;;;;;;;2.35;1.60;;;25.80;99.90;;;;;;5032660;28;20211;-45
2022/07/16 12:22:47;;;;;;;2.03;1.30;;;26.00;97.60;;;;;;5033269;28;20225;-44
2022/07/16 12:25:27;;;;;;;5.10;1.77;;;25.60;99.40;;;;;;5033095;28;20250;-47
2022/07/16 12:27:55;;;;;;;2.75;1.20;;;24.90;99.70;;;;;;5032767;28;20217;-47
2022/07/16 12:30:36;;;;;;;3.05;1.60;;;24.40;99.90;;;;;;5032766;28;20175;-47
2022/07/16 12:33:09;;;;;;;3.38;1.33;;;24.30;99.90;;;;;;5032816;28;20541;-45
2022/07/16 12:35:42;;;;;;;2.53;1.40;;;24.50;99.90;;;;;;5033077;28;20228;-49
2022/07/16 12:38:48;;;;;;;2.00;1.65;;;25.10;99.90;;;;;;5032771;28;20171;-53
2022/07/16 12:41:26;;;;;;;2.83;1.35;;;25.10;95.80;;;;;;5032620;28;20675;-47
2022/07/16 12:43:55;;;;;;;3.63;1.50;;;25.60;97.20;;;;;;5032629;28;20179;-47
2022/07/16 12:46:26;;;;;;;2.58;1.33;;;25.70;96.90;;;;;;5032432;28;20175;-46
2022/07/16 12:48:56;;;;;;;2.30;1.75;;;25.50;95.90;;;;;;5031767;28;20695;-52
2022/07/16 12:51:24;;;;;;;3.15;1.55;;;24.90;96.00;;;;;;5032478;28;20175;-45
2022/07/16 12:53:51;;;;;;;2.47;1.50;;;24.70;96.50;;;;;;5032428;28;20181;-47